Pagrindinis puslapis
METAR-TAF:

METAR-TAF

Oro uostai :

Belgradas, Serbija

platuma: 44-49N, ilguma: 020-17E, Aukštis: 96 m

Dabartinis oras

Ataskaita buvo paskelbta 21 minutes, ne 02:30 UTC
Vėjas 1 kt nuo kintamojo kryptimis
Temperatūra -3°C
Drėgmė 100%
Slėgis 1026 hPa
Matomumas: 0300 m
įšaldymas rūko

METAR: LYBE 180230Z VRB01KT 0300 R12/0375N R30/0325N FZFG VV002 M03/M03 Q1026 NOSIG

Laikas: 03:51 (02:51 UTC)

Prognozė

Ataskaita buvo paskelbta 3 valandos ir 51 minutes, ne 23:00 UTC
Prognozė galioja nuo 18 metu 00 UTC su 18 metu 24 UTC
Vėjas 2 kt nuo kintamojo kryptimis
Matomumas: 0300 m
ne aukštis 200 ft
įšaldymas rūko
Tapsmas
nuo 18 metu 04 UTC su 18 metu 06 UTC
Vėjas 12 kt iš Pietryčių
Matomumas: 6000 m

TAF: LYBE 172300Z 1800/1824 VRB02KT 0300 FZFG VV002 TX05/1812Z TNM02/1805Z BECMG 1804/1806 13012KT 6000 NSW NSC

Orai ataskaitas ir orų prognozės (METAR, TAF).

turimą stotys yra geltonos ir raudonos taškus žemėlapyje.

Perkelti pele per norėdami pamatyti stoties vardą.

Tada spustelėkite, norėdami matyti oro stebėjimo ir prognozės.

Norėdami pakeisti žemėlapį: spustelėkite ant žalios mygtukų su juodo kryžiaus žemyn,; žalią mygtuką su brūkšneliu, jei norite nutolinti; arba žalių rodyklių gretimoms žemėlapius.


METAR-TAF: